Time;durP1;ratioP1;P1;durP2;ratioP2;P2;SDS_P1;SDS_P2;PMS_P1;PMS_P2;Temp;Humidity;BMP_temperature;BMP_pressure;BME280_temperature;BME280_humidity;BME280_pressure;Samples;Min_cycle;Max_cycle;Signal;HPM_P1;HPM_P2
2023/08/27 00:00:23;;;;;;;5.43;3.53;;;15.20;99.90;;;;;;5070744;28;20027;-57
2023/08/27 00:02:49;;;;;;;8.98;3.50;;;15.20;99.90;;;;;;5070453;28;20012;-57
2023/08/27 00:05:14;;;;;;;6.38;3.00;;;15.20;99.90;;;;;;5069580;28;20024;-57
2023/08/27 00:07:40;;;;;;;3.15;2.67;;;15.20;99.90;;;;;;5070295;28;20473;-55
2023/08/27 00:10:06;;;;;;;3.30;2.47;;;15.30;99.90;;;;;;5070783;28;20025;-56
2023/08/27 00:12:32;;;;;;;3.83;2.95;;;15.30;99.90;;;;;;5070559;28;20025;-56
2023/08/27 00:14:57;;;;;;;4.25;3.33;;;15.40;99.90;;;;;;5070685;28;20465;-56
2023/08/27 00:17:24;;;;;;;4.95;3.30;;;15.30;99.90;;;;;;5070257;28;20024;-56
2023/08/27 00:19:49;;;;;;;5.45;2.83;;;15.40;99.90;;;;;;5070396;28;20013;-55
2023/08/27 00:22:15;;;;;;;7.55;3.53;;;15.40;99.90;;;;;;5068409;28;20032;-56
2023/08/27 00:24:40;;;;;;;5.35;3.03;;;15.40;99.90;;;;;;5070468;28;20096;-56
2023/08/27 00:27:06;;;;;;;3.75;2.80;;;15.50;99.90;;;;;;5073037;28;20022;-56
2023/08/27 00:29:32;;;;;;;3.85;2.85;;;15.50;99.90;;;;;;5065802;28;20036;-56
2023/08/27 00:31:58;;;;;;;4.50;2.30;;;15.60;99.90;;;;;;5068627;28;20016;-57
2023/08/27 00:34:34;;;;;;;8.25;2.80;;;15.70;99.90;;;;;;5070196;28;20115;-57
2023/08/27 00:37:00;;;;;;;5.05;3.08;;;15.70;99.90;;;;;;5066729;28;20528;-56
2023/08/27 00:39:26;;;;;;;5.47;2.58;;;15.80;99.90;;;;;;5068286;28;20051;-57
2023/08/27 00:41:52;;;;;;;7.18;2.95;;;15.80;99.90;;;;;;5070540;28;20363;-56
2023/08/27 00:44:17;;;;;;;2.92;2.35;;;15.90;99.90;;;;;;5068691;28;20027;-56
2023/08/27 00:46:43;;;;;;;4.88;2.72;;;16.00;99.90;;;;;;5070294;28;20028;-56
2023/08/27 00:49:09;;;;;;;5.10;2.40;;;16.10;99.90;;;;;;5069611;28;20035;-56
2023/08/27 00:51:37;;;;;;;4.00;2.40;;;16.10;99.90;;;;;;5069947;28;20101;-56
2023/08/27 00:54:04;;;;;;;4.15;2.40;;;16.20;99.90;;;;;;5069710;28;20108;-56
2023/08/27 00:56:30;;;;;;;4.00;2.70;;;16.20;99.90;;;;;;5069794;28;20031;-56
2023/08/27 00:58:56;;;;;;;3.85;2.53;;;16.30;99.90;;;;;;5069462;28;20107;-56
2023/08/27 01:01:23;;;;;;;3.03;2.13;;;16.30;99.90;;;;;;5070118;28;20028;-56
2023/08/27 01:03:48;;;;;;;3.28;2.17;;;16.30;99.90;;;;;;5069596;28;20443;-56
2023/08/27 01:06:14;;;;;;;4.35;2.33;;;16.40;99.90;;;;;;5069687;28;20016;-56
2023/08/27 01:08:56;;;;;;;5.22;2.30;;;16.40;99.90;;;;;;5069225;28;20493;-56
2023/08/27 01:11:42;;;;;;;14.57;2.55;;;16.40;99.90;;;;;;5069718;28;20028;-56
2023/08/27 01:14:10;;;;;;;2.72;1.80;;;16.50;99.90;;;;;;5061710;28;20473;-56
2023/08/27 01:16:37;;;;;;;2.53;1.90;;;16.50;99.90;;;;;;5069663;28;20112;-56
2023/08/27 01:19:11;;;;;;;4.47;2.35;;;16.60;99.90;;;;;;5069066;28;20051;-56
2023/08/27 01:21:37;;;;;;;1.60;1.50;;;16.60;99.90;;;;;;5068438;28;20016;-56
2023/08/27 01:24:03;;;;;;;3.83;2.45;;;16.70;99.90;;;;;;5064875;28;20106;-56
2023/08/27 01:27:04;;;;;;;2.03;1.50;;;16.70;99.90;;;;;;5064581;28;20103;-56
2023/08/27 01:29:33;;;;;;;6.07;2.20;;;16.60;99.90;;;;;;5069219;28;20452;-57
2023/08/27 01:32:14;;;;;;;6.57;1.83;;;16.70;99.90;;;;;;5069758;28;20021;-56
2023/08/27 01:34:41;;;;;;;3.92;2.38;;;16.70;99.90;;;;;;5069388;28;20025;-56
2023/08/27 01:37:08;;;;;;;2.43;1.97;;;16.70;99.90;;;;;;5069294;28;20381;-57
2023/08/27 01:39:34;;;;;;;2.60;1.95;;;16.70;99.90;;;;;;5068595;28;20027;-56
2023/08/27 01:42:00;;;;;;;4.07;2.08;;;16.70;99.90;;;;;;5062282;28;20013;-56
2023/08/27 01:44:25;;;;;;;4.38;2.17;;;16.70;99.90;;;;;;5069340;28;20028;-56
2023/08/27 01:46:51;;;;;;;4.30;1.85;;;16.60;99.90;;;;;;5068034;28;20017;-56
2023/08/27 01:49:16;;;;;;;2.35;2.13;;;16.70;99.90;;;;;;5068938;28;20104;-56
2023/08/27 01:51:42;;;;;;;3.05;2.05;;;16.70;99.90;;;;;;5067943;28;20025;-56
2023/08/27 01:54:07;;;;;;;3.10;1.63;;;16.70;99.90;;;;;;5062797;28;20052;-56
2023/08/27 01:56:33;;;;;;;3.60;2.15;;;16.70;99.90;;;;;;5069846;28;20028;-56
2023/08/27 01:58:58;;;;;;;3.78;2.15;;;16.60;99.90;;;;;;5069246;28;20500;-57
2023/08/27 02:01:24;;;;;;;3.63;1.85;;;16.60;99.90;;;;;;5069820;28;20025;-57
2023/08/27 02:03:49;;;;;;;3.78;1.80;;;16.60;99.90;;;;;;5069125;28;20020;-57
2023/08/27 02:06:15;;;;;;;2.55;1.90;;;16.60;99.90;;;;;;5069234;28;20429;-57
2023/08/27 02:08:41;;;;;;;6.85;1.98;;;16.60;99.90;;;;;;5067455;28;20437;-57
2023/08/27 02:11:06;;;;;;;6.28;1.98;;;16.60;99.90;;;;;;5069166;28;20029;-57
2023/08/27 02:13:32;;;;;;;3.70;2.00;;;16.60;99.90;;;;;;5069286;28;20025;-57
2023/08/27 02:15:57;;;;;;;3.53;2.47;;;16.60;99.90;;;;;;5069338;28;20025;-56
2023/08/27 02:18:23;;;;;;;2.60;1.83;;;16.60;99.90;;;;;;5067581;28;20024;-56
2023/08/27 02:20:48;;;;;;;5.35;2.10;;;16.60;99.90;;;;;;5069280;28;20025;-56
2023/08/27 02:23:14;;;;;;;2.65;2.03;;;16.60;99.90;;;;;;5069315;28;20021;-56
2023/08/27 02:25:39;;;;;;;4.03;2.10;;;16.60;99.90;;;;;;5071842;28;20021;-57
2023/08/27 02:28:05;;;;;;;3.58;1.85;;;16.50;99.90;;;;;;5072432;28;20024;-57
2023/08/27 02:30:30;;;;;;;3.60;1.92;;;16.60;99.90;;;;;;5064564;28;20025;-56
2023/08/27 02:32:56;;;;;;;3.22;2.05;;;16.60;99.90;;;;;;5072759;28;20032;-56
2023/08/27 02:35:22;;;;;;;4.07;1.95;;;16.50;99.90;;;;;;5072844;28;20039;-57
2023/08/27 02:37:47;;;;;;;3.47;1.90;;;16.50;99.90;;;;;;5071656;28;20444;-57
2023/08/27 02:40:13;;;;;;;4.85;1.77;;;16.50;99.90;;;;;;5072265;28;20024;-57
2023/08/27 02:42:39;;;;;;;2.35;2.10;;;16.50;99.90;;;;;;5070756;28;20025;-57
2023/08/27 02:45:05;;;;;;;5.13;1.92;;;16.40;99.90;;;;;;5072583;28;20038;-55
2023/08/27 02:47:31;;;;;;;3.65;2.20;;;16.30;99.90;;;;;;5071987;28;20035;-57
2023/08/27 02:49:56;;;;;;;2.72;2.10;;;16.30;99.90;;;;;;5072217;28;20025;-58
2023/08/27 02:52:22;;;;;;;2.88;2.13;;;16.30;99.90;;;;;;5072458;28;20032;-55
2023/08/27 02:54:47;;;;;;;3.25;2.05;;;16.30;99.90;;;;;;5072165;28;20020;-55
2023/08/27 02:57:13;;;;;;;2.78;2.08;;;16.30;99.90;;;;;;5071926;28;20029;-55
2023/08/27 02:59:38;;;;;;;4.68;2.03;;;16.20;99.90;;;;;;5063158;28;20021;-55
2023/08/27 03:02:04;;;;;;;2.65;2.30;;;16.20;99.90;;;;;;5072105;28;20028;-58
2023/08/27 03:04:29;;;;;;;3.03;2.05;;;16.10;99.90;;;;;;5064737;28;20492;-55
2023/08/27 03:06:55;;;;;;;4.60;2.30;;;16.10;99.90;;;;;;5071492;28;20035;-55
2023/08/27 03:09:21;;;;;;;6.43;2.55;;;16.10;99.90;;;;;;5071507;28;20024;-55
2023/08/27 03:11:46;;;;;;;2.70;2.08;;;16.10;99.90;;;;;;5067976;28;20414;-56
2023/08/27 03:14:12;;;;;;;6.40;2.35;;;16.00;99.90;;;;;;5057182;28;20033;-56
2023/08/27 03:16:38;;;;;;;2.92;2.13;;;16.10;99.90;;;;;;5072010;28;20095;-55
2023/08/27 03:19:04;;;;;;;2.25;1.80;;;16.10;99.90;;;;;;5071586;28;20103;-58
2023/08/27 03:21:30;;;;;;;2.75;1.92;;;16.10;99.90;;;;;;5070787;28;20120;-58
2023/08/27 03:23:55;;;;;;;3.78;2.25;;;16.00;99.90;;;;;;5071795;28;20039;-58
2023/08/27 03:26:21;;;;;;;3.75;2.58;;;16.10;99.90;;;;;;5071920;28;20020;-58
2023/08/27 03:28:46;;;;;;;3.00;2.40;;;16.00;99.90;;;;;;5071595;28;20033;-56
2023/08/27 03:31:12;;;;;;;2.92;2.28;;;16.00;99.90;;;;;;5070191;28;20032;-56
2023/08/27 03:33:37;;;;;;;9.45;2.70;;;16.00;99.90;;;;;;5071624;28;20100;-56
2023/08/27 03:36:03;;;;;;;2.65;2.45;;;16.00;99.90;;;;;;5071442;28;20028;-58
2023/08/27 03:38:29;;;;;;;3.15;1.90;;;16.00;99.90;;;;;;5067334;28;21711;-56
2023/08/27 03:40:55;;;;;;;2.33;1.90;;;16.00;99.90;;;;;;5066334;28;20028;-56
2023/08/27 03:43:20;;;;;;;5.10;2.40;;;16.00;99.90;;;;;;5063286;28;20336;-56
2023/08/27 03:45:46;;;;;;;5.65;2.08;;;16.00;99.90;;;;;;5074282;28;20024;-56
2023/08/27 03:48:11;;;;;;;2.53;2.20;;;16.00;99.90;;;;;;5061206;28;20075;-56
2023/08/27 03:50:37;;;;;;;2.88;2.13;;;16.00;99.90;;;;;;5064029;28;20021;-56
2023/08/27 03:53:04;;;;;;;3.72;2.15;;;16.00;99.90;;;;;;5071108;28;20124;-56
2023/08/27 03:55:30;;;;;;;5.90;2.60;;;16.00;99.90;;;;;;5073274;28;20063;-56
2023/08/27 03:57:56;;;;;;;2.95;2.05;;;16.00;99.90;;;;;;5070607;28;20075;-56
2023/08/27 04:00:21;;;;;;;1.95;1.77;;;15.90;99.90;;;;;;5071308;28;20162;-56
2023/08/27 04:02:47;;;;;;;4.15;2.38;;;15.90;99.90;;;;;;5062878;28;20032;-56
2023/08/27 04:05:13;;;;;;;3.03;1.90;;;15.90;99.90;;;;;;5069733;28;20043;-56
2023/08/27 04:07:40;;;;;;;6.40;2.72;;;15.90;99.90;;;;;;5060816;28;20029;-56
2023/08/27 04:10:06;;;;;;;3.85;2.17;;;15.90;99.90;;;;;;5071031;28;20029;-55
2023/08/27 04:12:32;;;;;;;2.90;1.90;;;15.90;99.90;;;;;;5069635;28;20033;-55
2023/08/27 04:14:58;;;;;;;3.38;2.67;;;15.90;99.90;;;;;;5070763;28;20471;-56
2023/08/27 04:17:23;;;;;;;3.15;1.80;;;15.80;99.90;;;;;;5070439;28;20043;-56
2023/08/27 04:19:49;;;;;;;3.40;2.50;;;15.90;99.90;;;;;;5062311;28;20099;-56
2023/08/27 04:22:14;;;;;;;2.78;1.98;;;15.90;99.90;;;;;;5070994;28;20067;-56
2023/08/27 04:24:41;;;;;;;3.80;2.67;;;15.90;99.90;;;;;;5070654;28;20048;-56
2023/08/27 04:27:07;;;;;;;6.15;2.78;;;15.90;99.90;;;;;;5070706;28;20016;-56
2023/08/27 04:29:33;;;;;;;3.33;2.30;;;15.90;99.90;;;;;;5070496;28;20031;-56
2023/08/27 04:31:58;;;;;;;2.83;2.30;;;15.90;99.90;;;;;;5062254;28;20043;-56
2023/08/27 04:34:24;;;;;;;2.60;2.40;;;15.90;99.90;;;;;;5070353;28;20047;-55
2023/08/27 04:36:49;;;;;;;4.03;2.47;;;15.90;99.90;;;;;;5069909;28;20036;-55
2023/08/27 04:39:15;;;;;;;4.60;2.75;;;15.90;99.90;;;;;;5069679;28;20029;-56
2023/08/27 04:41:40;;;;;;;2.50;2.13;;;15.80;99.90;;;;;;5070380;28;20097;-56
2023/08/27 04:44:06;;;;;;;4.35;2.30;;;15.80;99.90;;;;;;5070290;28;20024;-56
2023/08/27 04:46:31;;;;;;;3.67;2.67;;;15.80;99.90;;;;;;5070236;28;20020;-56
2023/08/27 04:48:57;;;;;;;7.63;3.15;;;15.80;99.90;;;;;;5069405;28;20497;-56
2023/08/27 04:51:26;;;;;;;4.30;2.08;;;15.80;99.90;;;;;;5064226;28;20390;-56
2023/08/27 04:53:52;;;;;;;4.85;2.15;;;15.80;99.90;;;;;;5068468;28;20086;-56
2023/08/27 04:56:18;;;;;;;3.38;2.40;;;15.80;99.90;;;;;;5061884;28;20021;-56
2023/08/27 04:58:44;;;;;;;3.72;2.13;;;15.90;99.90;;;;;;5066913;28;20035;-56
2023/08/27 05:01:09;;;;;;;5.47;2.25;;;15.90;99.90;;;;;;5070362;28;20016;-56
2023/08/27 05:03:35;;;;;;;6.03;2.80;;;16.00;99.90;;;;;;5062624;28;20112;-56
2023/08/27 05:06:00;;;;;;;4.40;2.42;;;16.00;99.90;;;;;;5069380;28;20025;-57
2023/08/27 05:08:26;;;;;;;3.95;2.45;;;16.10;99.90;;;;;;5069709;28;20248;-57
2023/08/27 05:10:52;;;;;;;4.90;2.83;;;16.10;99.90;;;;;;5056539;28;20032;-57
2023/08/27 05:13:19;;;;;;;4.40;2.45;;;16.10;99.90;;;;;;5059513;28;20028;-56
2023/08/27 05:15:44;;;;;;;5.75;2.40;;;16.10;99.90;;;;;;5059305;28;20074;-56
2023/08/27 05:18:10;;;;;;;4.13;2.17;;;16.20;99.90;;;;;;5061939;28;20049;-56
2023/08/27 05:20:39;;;;;;;3.10;2.45;;;16.20;99.90;;;;;;5056784;28;20028;-56
2023/08/27 05:23:04;;;;;;;3.80;2.35;;;16.10;99.90;;;;;;5061735;28;20312;-56
2023/08/27 05:25:30;;;;;;;2.85;2.20;;;16.20;99.90;;;;;;5061054;28;20077;-57
2023/08/27 05:27:56;;;;;;;3.47;2.15;;;16.20;99.90;;;;;;5066736;28;20044;-57
2023/08/27 05:30:22;;;;;;;4.28;2.05;;;16.20;99.90;;;;;;5068353;28;20028;-57
2023/08/27 05:32:47;;;;;;;4.95;2.40;;;16.30;99.90;;;;;;5069599;28;20033;-57
2023/08/27 05:35:13;;;;;;;6.25;2.63;;;16.30;99.90;;;;;;5069823;28;20518;-58
2023/08/27 05:37:39;;;;;;;4.28;2.58;;;16.40;99.90;;;;;;5069319;28;20422;-58
2023/08/27 05:40:06;;;;;;;4.72;2.33;;;16.40;99.90;;;;;;5069636;28;20428;-57
2023/08/27 05:42:32;;;;;;;4.85;2.53;;;16.40;99.90;;;;;;5069548;28;20024;-56
2023/08/27 05:44:58;;;;;;;3.20;2.47;;;16.40;99.90;;;;;;5067419;28;20020;-56
2023/08/27 05:47:26;;;;;;;4.82;2.78;;;16.50;99.90;;;;;;5056771;28;20092;-57
2023/08/27 05:49:52;;;;;;;3.20;2.20;;;16.50;99.90;;;;;;5062749;28;20021;-57
2023/08/27 05:52:18;;;;;;;5.30;2.28;;;16.60;99.90;;;;;;5069677;28;20033;-57
2023/08/27 05:54:43;;;;;;;2.45;2.20;;;16.60;99.90;;;;;;5064013;28;20090;-56
2023/08/27 05:57:09;;;;;;;3.65;2.13;;;16.60;99.90;;;;;;5058458;28;20024;-56
2023/08/27 05:59:34;;;;;;;2.72;2.08;;;16.60;99.90;;;;;;5060532;28;20083;-56
2023/08/27 06:02:00;;;;;;;3.80;2.30;;;16.60;99.90;;;;;;5062257;28;20021;-56
2023/08/27 06:04:25;;;;;;;2.70;2.40;;;16.60;99.90;;;;;;5062993;28;20021;-57
2023/08/27 06:06:51;;;;;;;4.45;2.30;;;16.70;99.90;;;;;;5061129;28;20021;-57
2023/08/27 06:09:17;;;;;;;2.58;1.88;;;16.70;99.90;;;;;;5061931;28;20052;-56
2023/08/27 06:11:42;;;;;;;4.63;2.42;;;16.70;99.90;;;;;;5065256;28;20036;-56
2023/08/27 06:14:08;;;;;;;4.47;2.47;;;16.70;99.90;;;;;;5065834;28;20555;-56
2023/08/27 06:16:34;;;;;;;2.83;2.22;;;16.70;99.90;;;;;;5041582;28;20043;-56
2023/08/27 06:18:59;;;;;;;2.95;2.58;;;16.70;99.90;;;;;;5038485;28;20035;-56
2023/08/27 06:21:25;;;;;;;4.25;2.45;;;16.80;99.90;;;;;;5059500;28;20044;-55
2023/08/27 06:23:51;;;;;;;3.92;2.42;;;16.80;99.90;;;;;;5067576;28;20146;-56
2023/08/27 06:26:16;;;;;;;3.03;2.40;;;16.80;99.90;;;;;;5070539;28;20036;-56
2023/08/27 06:28:42;;;;;;;3.78;2.30;;;16.90;99.90;;;;;;5071647;28;20435;-56
2023/08/27 06:31:07;;;;;;;3.55;2.33;;;16.90;99.90;;;;;;5072592;28;20043;-56
2023/08/27 06:33:33;;;;;;;3.40;2.30;;;17.00;99.90;;;;;;5072140;28;20032;-56
2023/08/27 06:35:58;;;;;;;2.55;2.00;;;17.00;99.90;;;;;;5070870;28;20033;-56
2023/08/27 06:38:24;;;;;;;3.63;2.10;;;17.00;99.90;;;;;;5071782;28;20040;-56
2023/08/27 06:40:50;;;;;;;3.45;2.20;;;17.10;99.90;;;;;;5072201;28;20048;-56
2023/08/27 06:43:15;;;;;;;2.13;1.92;;;17.10;99.90;;;;;;5072009;28;20043;-57
2023/08/27 06:45:41;;;;;;;3.72;2.15;;;17.20;99.90;;;;;;5072042;28;20052;-57
2023/08/27 06:48:08;;;;;;;4.45;2.38;;;17.20;99.90;;;;;;5070687;28;20012;-56
2023/08/27 06:50:33;;;;;;;4.30;2.35;;;17.30;99.90;;;;;;5071100;28;20020;-56
2023/08/27 06:52:59;;;;;;;4.35;2.60;;;17.30;99.90;;;;;;5070101;28;20500;-56
2023/08/27 06:55:24;;;;;;;3.53;2.60;;;17.30;99.90;;;;;;5067134;28;20029;-56
2023/08/27 06:57:50;;;;;;;3.47;2.30;;;17.30;99.90;;;;;;5062174;28;20032;-56
2023/08/27 07:00:17;;;;;;;2.92;2.00;;;17.40;99.90;;;;;;5065724;28;20024;-57
2023/08/27 07:02:44;;;;;;;3.63;2.20;;;17.50;99.90;;;;;;5062476;28;20417;-57
2023/08/27 07:05:09;;;;;;;3.70;2.03;;;17.60;99.90;;;;;;5065811;28;20020;-56
2023/08/27 07:07:38;;;;;;;4.15;2.50;;;17.70;99.90;;;;;;5067658;28;20038;-56
2023/08/27 07:10:08;;;;;;;4.82;2.60;;;17.80;99.90;;;;;;5067465;28;20059;-57
2023/08/27 07:12:34;;;;;;;4.85;2.60;;;17.90;99.90;;;;;;5071727;28;20074;-57
2023/08/27 07:15:03;;;;;;;4.60;2.20;;;18.00;99.90;;;;;;5071715;28;20032;-57
2023/08/27 07:17:29;;;;;;;4.88;2.53;;;18.00;99.90;;;;;;5071175;28;20067;-56
2023/08/27 07:19:55;;;;;;;4.63;2.35;;;18.10;99.90;;;;;;5071404;28;20052;-57
2023/08/27 07:22:21;;;;;;;5.93;2.00;;;18.00;99.90;;;;;;5071520;28;20051;-57
2023/08/27 07:24:46;;;;;;;4.93;2.38;;;18.10;99.90;;;;;;5071665;28;20316;-56
2023/08/27 07:27:12;;;;;;;2.90;2.00;;;18.20;99.90;;;;;;5061514;28;20052;-56
2023/08/27 07:29:37;;;;;;;3.22;2.40;;;18.30;99.90;;;;;;5071054;28;20093;-57
2023/08/27 07:32:03;;;;;;;4.28;2.20;;;18.30;99.90;;;;;;5069825;28;20128;-57
2023/08/27 07:34:30;;;;;;;3.03;2.10;;;18.40;99.90;;;;;;5071257;28;20020;-57
2023/08/27 07:36:55;;;;;;;3.40;1.85;;;18.40;99.90;;;;;;5050859;28;20029;-56
2023/08/27 07:39:22;;;;;;;4.43;2.17;;;18.60;99.90;;;;;;5070566;28;20027;-57
2023/08/27 07:41:47;;;;;;;3.47;2.45;;;18.60;99.90;;;;;;5071015;28;20048;-57
2023/08/27 07:44:13;;;;;;;3.20;1.77;;;18.70;99.90;;;;;;5057863;28;20485;-57
2023/08/27 07:46:39;;;;;;;3.60;1.75;;;18.80;99.90;;;;;;5065453;28;20017;-57
2023/08/27 07:49:05;;;;;;;3.65;2.20;;;19.00;99.90;;;;;;5062371;28;20028;-56
2023/08/27 07:51:30;;;;;;;3.33;2.13;;;19.10;99.90;;;;;;5061349;28;20382;-56
2023/08/27 07:53:56;;;;;;;5.55;2.45;;;19.10;99.90;;;;;;5061507;28;20028;-56
2023/08/27 07:56:23;;;;;;;3.10;2.10;;;19.20;99.90;;;;;;5060963;28;20032;-56
2023/08/27 07:58:49;;;;;;;3.60;2.20;;;19.30;99.90;;;;;;5064370;28;20013;-57
2023/08/27 08:01:15;;;;;;;3.38;2.10;;;19.30;99.90;;;;;;5065155;28;20025;-57
2023/08/27 08:03:41;;;;;;;7.70;2.30;;;19.30;99.90;;;;;;5069361;28;20394;-56
2023/08/27 08:06:07;;;;;;;2.90;2.25;;;19.20;99.90;;;;;;5062872;28;20028;-56
2023/08/27 08:08:33;;;;;;;5.30;2.50;;;19.30;99.90;;;;;;5063312;28;20029;-56
2023/08/27 08:10:59;;;;;;;2.30;2.05;;;19.20;99.90;;;;;;5060606;28;20389;-53
2023/08/27 08:13:25;;;;;;;2.53;2.00;;;19.20;99.90;;;;;;5059087;28;20025;-53
2023/08/27 08:15:51;;;;;;;4.68;2.10;;;19.10;99.90;;;;;;5058589;28;20036;-54
2023/08/27 08:18:17;;;;;;;4.55;2.15;;;19.00;99.90;;;;;;5056083;28;20044;-53
2023/08/27 08:20:42;;;;;;;5.68;2.53;;;19.00;99.90;;;;;;5058199;28;20385;-53
2023/08/27 08:23:08;;;;;;;3.38;2.28;;;18.90;99.90;;;;;;5056482;28;20091;-54
2023/08/27 08:25:37;;;;;;;4.43;2.13;;;18.90;99.90;;;;;;5054202;28;20025;-53
2023/08/27 08:28:03;;;;;;;3.85;2.47;;;18.80;99.90;;;;;;5066163;28;20020;-57
2023/08/27 08:30:28;;;;;;;3.20;2.08;;;18.70;99.90;;;;;;5064585;28;20523;-54
2023/08/27 08:32:54;;;;;;;2.70;2.10;;;18.70;99.90;;;;;;5059323;28;20062;-54
2023/08/27 08:35:19;;;;;;;3.50;2.65;;;18.70;99.90;;;;;;5059947;28;20478;-54
2023/08/27 08:37:45;;;;;;;6.60;3.25;;;18.60;99.90;;;;;;5059537;28;20485;-54
2023/08/27 08:40:11;;;;;;;3.97;2.28;;;18.50;99.90;;;;;;5061432;28;20055;-54
2023/08/27 08:42:57;;;;;;;3.15;2.30;;;18.50;99.90;;;;;;5063562;28;20482;-54
2023/08/27 08:45:45;;;;;;;4.55;2.13;;;18.40;99.90;;;;;;5070827;28;20095;-54
2023/08/27 08:48:11;;;;;;;5.07;2.47;;;18.40;99.90;;;;;;5069421;28;20474;-54
2023/08/27 08:50:40;;;;;;;3.17;2.20;;;18.40;99.90;;;;;;5069319;28;20037;-55
2023/08/27 08:53:14;;;;;;;2.95;2.13;;;18.40;99.90;;;;;;5068443;28;20028;-54
2023/08/27 08:55:45;;;;;;;3.95;2.88;;;18.40;99.90;;;;;;5070000;28;20028;-54
2023/08/27 08:58:11;;;;;;;;;;;18.40;99.90;;;;;;5068661;28;20209;-54
2023/08/27 09:00:36;;;;;;;5.00;2.90;;;18.40;99.90;;;;;;5064634;28;19909;-55
2023/08/27 09:03:03;;;;;;;3.83;2.22;;;18.40;99.90;;;;;;5055064;28;20028;-54
2023/08/27 09:05:31;;;;;;;5.38;2.72;;;18.30;99.90;;;;;;5057134;28;20021;-54
2023/08/27 09:07:57;;;;;;;4.55;2.60;;;18.30;99.90;;;;;;5057427;28;20028;-54
2023/08/27 09:10:24;;;;;;;4.95;2.33;;;18.30;99.90;;;;;;5058202;28;20017;-54
2023/08/27 09:12:55;;;;;;;4.13;2.88;;;18.30;99.90;;;;;;5061089;28;20024;-55
2023/08/27 09:15:21;;;;;;;3.45;2.58;;;18.40;99.90;;;;;;5062817;28;20085;-53
2023/08/27 09:17:47;;;;;;;4.40;2.78;;;18.50;99.90;;;;;;5067586;28;20036;-54
2023/08/27 09:20:13;;;;;;;4.22;2.78;;;18.60;99.90;;;;;;5069166;28;20017;-54
2023/08/27 09:22:40;;;;;;;7.00;2.80;;;18.60;99.90;;;;;;5069088;28;20339;-54
2023/08/27 09:25:07;;;;;;;6.55;2.60;;;18.60;99.90;;;;;;5069252;28;20450;-54
2023/08/27 09:27:33;;;;;;;4.60;2.78;;;18.60;99.90;;;;;;5067535;28;20116;-55
2023/08/27 09:30:00;;;;;;;4.53;2.25;;;18.60;99.90;;;;;;5069093;28;20100;-54
2023/08/27 09:32:26;;;;;;;2.90;2.45;;;18.70;99.90;;;;;;5067709;28;20474;-53
2023/08/27 09:35:00;;;;;;;5.63;2.53;;;18.70;99.90;;;;;;5055446;28;20482;-53
2023/08/27 09:37:47;;;;;;;5.72;3.00;;;18.60;99.90;;;;;;5056509;28;20109;-57
2023/08/27 09:40:32;;;;;;;8.40;3.40;;;18.50;99.90;;;;;;5005749;28;20057;-57
2023/08/27 09:43:08;;;;;;;6.70;3.13;;;18.30;99.90;;;;;;5005651;28;20554;-56
2023/08/27 09:45:35;;;;;;;3.95;3.30;;;18.20;99.90;;;;;;5058260;28;20108;-57
2023/08/27 09:48:02;;;;;;;4.30;3.45;;;18.10;99.90;;;;;;5062727;28;20177;-57
2023/08/27 09:50:48;;;;;;;6.75;3.97;;;18.00;99.90;;;;;;5040493;28;20037;-56
2023/08/27 09:53:13;;;;;;;5.43;3.70;;;17.90;99.90;;;;;;5025802;28;20534;-56
2023/08/27 09:55:40;;;;;;;6.00;3.70;;;17.90;99.90;;;;;;5039530;28;20103;-56
2023/08/27 09:58:06;;;;;;;4.75;3.30;;;17.80;99.90;;;;;;5062123;28;20036;-57
2023/08/27 10:00:32;;;;;;;5.57;3.85;;;18.00;99.90;;;;;;5055122;28;20028;-57
2023/08/27 10:02:58;;;;;;;4.43;3.60;;;18.20;99.90;;;;;;5057772;28;20099;-57
2023/08/27 10:05:28;;;;;;;6.20;4.00;;;18.30;99.90;;;;;;5054643;28;20021;-57
2023/08/27 10:08:02;;;;;;;6.40;4.00;;;18.80;99.90;;;;;;5055999;28;20036;-57
2023/08/27 10:10:28;;;;;;;5.10;3.95;;;19.20;99.90;;;;;;5056063;28;20016;-56
2023/08/27 10:12:55;;;;;;;7.70;3.47;;;19.40;99.90;;;;;;5055790;28;20024;-57
2023/08/27 10:15:23;;;;;;;5.57;3.65;;;19.50;99.90;;;;;;5057670;28;20645;-56
2023/08/27 10:17:51;;;;;;;4.45;3.28;;;19.60;99.90;;;;;;5057767;28;20075;-57
2023/08/27 10:20:18;;;;;;;3.92;3.05;;;20.40;99.90;;;;;;5057569;28;20031;-56
2023/08/27 10:23:23;;;;;;;3.92;3.35;;;21.10;99.90;;;;;;5059338;28;20377;-57
2023/08/27 10:25:51;;;;;;;4.18;2.70;;;22.40;99.90;;;;;;4994397;28;20448;-56
2023/08/27 10:28:17;;;;;;;4.70;2.90;;;22.70;99.90;;;;;;5035148;28;20033;-57
2023/08/27 10:30:47;;;;;;;5.25;2.22;;;23.10;99.90;;;;;;5063994;28;20386;-57
2023/08/27 10:33:13;;;;;;;3.17;2.22;;;23.40;99.90;;;;;;5061508;28;20090;-55
2023/08/27 10:35:40;;;;;;;6.05;2.25;;;23.50;99.90;;;;;;5057601;28;20367;-56
2023/08/27 10:38:09;;;;;;;3.65;2.65;;;24.20;99.90;;;;;;5058247;28;20054;-55
2023/08/27 10:40:36;;;;;;;6.28;2.58;;;24.30;99.90;;;;;;5057974;28;20052;-56
2023/08/27 10:43:09;;;;;;;7.63;2.75;;;24.40;99.90;;;;;;5060644;28;20201;-56
2023/08/27 10:45:38;;;;;;;3.47;1.95;;;24.80;99.90;;;;;;5059842;28;20555;-57
2023/08/27 10:48:23;;;;;;;4.70;2.40;;;25.30;99.90;;;;;;5063822;28;20020;-57
2023/08/27 10:50:58;;;;;;;3.28;1.98;;;25.50;99.90;;;;;;5063910;28;20028;-57
2023/08/27 10:53:24;;;;;;;3.90;2.13;;;25.00;97.20;;;;;;5062389;28;20107;-56
2023/08/27 10:55:52;;;;;;;4.78;1.98;;;25.10;99.90;;;;;;5063808;28;20104;-56
2023/08/27 10:58:21;;;;;;;6.75;2.00;;;24.90;99.40;;;;;;5065035;28;20063;-56
2023/08/27 11:01:05;;;;;;;6.13;2.30;;;24.90;98.90;;;;;;5065346;28;20029;-56
2023/08/27 11:04:00;;;;;;;3.63;2.03;;;24.90;98.50;;;;;;5059033;28;20028;-57
2023/08/27 11:06:45;;;;;;;7.07;2.65;;;24.40;96.90;;;;;;5059397;28;20381;-56
2023/08/27 11:09:23;;;;;;;5.90;2.03;;;24.50;96.80;;;;;;5057719;28;20462;-56
2023/08/27 11:11:54;;;;;;;4.20;2.22;;;24.60;98.30;;;;;;5062687;28;20037;-56
2023/08/27 11:14:24;;;;;;;3.05;1.77;;;25.30;98.80;;;;;;5068706;28;20406;-55
2023/08/27 11:17:00;;;;;;;6.32;2.30;;;25.10;95.40;;;;;;5068611;28;20115;-55
2023/08/27 11:19:30;;;;;;;2.03;1.83;;;25.70;94.70;;;;;;5065880;28;20056;-56
2023/08/27 11:22:21;;;;;;;2.97;2.03;;;26.90;94.30;;;;;;5068476;28;20013;-56
2023/08/27 11:24:48;;;;;;;5.13;2.17;;;27.90;93.00;;;;;;5064850;28;20496;-56
2023/08/27 11:27:16;;;;;;;3.25;2.00;;;27.40;91.40;;;;;;5068212;28;20327;-56
2023/08/27 11:29:43;;;;;;;6.60;2.08;;;27.10;91.20;;;;;;5068274;28;20387;-54
2023/08/27 11:32:10;;;;;;;5.03;2.00;;;26.40;91.90;;;;;;5066960;28;20458;-54
2023/08/27 11:34:40;;;;;;;4.03;1.77;;;26.40;91.10;;;;;;5068279;28;20043;-55
2023/08/27 11:37:06;;;;;;;2.58;1.83;;;26.30;90.60;;;;;;5068251;28;20047;-54
2023/08/27 11:39:33;;;;;;;3.38;1.90;;;26.40;92.50;;;;;;5064642;28;20193;-55
2023/08/27 11:41:59;;;;;;;3.75;2.28;;;26.30;92.80;;;;;;5058281;28;20016;-54
2023/08/27 11:44:25;;;;;;;2.92;2.00;;;26.00;91.90;;;;;;5059890;28;20035;-56
2023/08/27 11:46:53;;;;;;;3.40;2.05;;;26.10;92.10;;;;;;5061610;28;20029;-56
2023/08/27 11:49:48;;;;;;;2.78;1.85;;;26.60;90.40;;;;;;5067606;28;20032;-57
2023/08/27 11:52:14;;;;;;;3.40;2.03;;;27.30;90.50;;;;;;5042762;28;20273;-55
2023/08/27 11:54:40;;;;;;;2.08;1.85;;;27.70;89.30;;;;;;5038632;28;20446;-55
2023/08/27 11:57:06;;;;;;;3.85;2.17;;;27.40;86.70;;;;;;5058966;28;20041;-55
2023/08/27 11:59:32;;;;;;;2.35;1.80;;;27.20;88.60;;;;;;5069155;28;20027;-55
2023/08/27 12:01:58;;;;;;;3.60;2.10;;;26.90;89.60;;;;;;5070789;28;20009;-56
2023/08/27 12:04:28;;;;;;;3.53;2.38;;;26.90;89.20;;;;;;5069316;28;20021;-55
2023/08/27 12:07:00;;;;;;;3.00;2.00;;;26.40;85.40;;;;;;5070593;28;20474;-56
2023/08/27 12:09:31;;;;;;;4.05;2.00;;;27.00;89.70;;;;;;5070099;28;20494;-56
2023/08/27 12:12:03;;;;;;;3.17;2.17;;;27.20;84.30;;;;;;5070006;28;20047;-56
2023/08/27 12:14:29;;;;;;;3.50;2.13;;;26.70;87.10;;;;;;5070264;28;20108;-56
2023/08/27 12:17:05;;;;;;;4.05;2.22;;;26.10;87.20;;;;;;5070804;28;20112;-55
2023/08/27 12:19:30;;;;;;;7.35;2.00;;;25.80;90.40;;;;;;5069190;28;20028;-55
2023/08/27 12:21:57;;;;;;;3.50;2.10;;;25.30;88.90;;;;;;5069780;28;20039;-55
2023/08/27 12:24:48;;;;;;;13.15;8.40;;;24.70;90.20;;;;;;5069635;28;20021;-55
2023/08/27 12:27:20;;;;;;;7.68;2.47;;;24.30;91.10;;;;;;5065477;28;20490;-54
2023/08/27 12:29:46;;;;;;;4.45;2.58;;;23.80;91.50;;;;;;5069772;28;20057;-53
2023/08/27 12:32:13;;;;;;;5.38;2.60;;;23.30;91.80;;;;;;5070074;28;20034;-54
2023/08/27 12:34:44;;;;;;;2.35;2.08;;;23.10;93.80;;;;;;5069022;28;20081;-54
2023/08/27 12:37:15;;;;;;;4.30;2.60;;;22.90;92.60;;;;;;5068566;28;20025;-53
2023/08/27 12:39:42;;;;;;;4.13;2.78;;;22.60;93.40;;;;;;5068356;28;20047;-53
2023/08/27 12:42:08;;;;;;;4.25;2.28;;;22.60;94.10;;;;;;5069818;28;20028;-54
2023/08/27 12:44:35;;;;;;;4.43;2.72;;;22.60;94.00;;;;;;5067013;28;20101;-53
2023/08/27 12:47:01;;;;;;;3.67;2.65;;;22.70;95.30;;;;;;5068845;28;20023;-53
2023/08/27 12:49:29;;;;;;;2.40;1.77;;;22.80;95.70;;;;;;5068523;28;20017;-53